Time;durP1;ratioP1;P1;durP2;ratioP2;P2;SDS_P1;SDS_P2;PMS_P1;PMS_P2;Temp;Humidity;BMP_temperature;BMP_pressure;BME280_temperature;BME280_humidity;BME280_pressure;Samples;Min_cycle;Max_cycle;Signal;HPM_P1;HPM_P2
2023/03/12 00:18:06;;;;;;;17.90;11.50;;;;;;;-1.63;83.80;97865.34;438912;1256;107034;-41
2023/03/12 00:28:13;;;;;;;25.10;13.30;;;;;;;-1.80;83.84;97867.10;437023;1254;107797;-39
2023/03/12 00:38:21;;;;;;;21.40;11.60;;;;;;;-1.91;83.68;97870.80;437095;1253;99320;-40
2023/03/12 00:48:29;;;;;;;14.30;9.80;;;;;;;-1.86;83.89;97870.33;435690;1253;107975;-40
2023/03/12 00:58:35;;;;;;;16.00;9.40;;;;;;;-1.87;83.85;97869.27;436076;1253;98000;-40
2023/03/12 01:08:42;;;;;;;22.40;11.80;;;;;;;-1.94;83.90;97870.45;437705;1256;111359;-40
2023/03/12 01:18:49;;;;;;;19.00;10.50;;;;;;;-2.07;83.97;97875.29;435132;1253;107738;-40
2023/03/12 01:28:56;;;;;;;22.70;10.40;;;;;;;-2.18;84.25;97874.85;435128;1257;98865;-40
2023/03/12 01:39:04;;;;;;;17.50;8.60;;;;;;;-2.26;84.25;97871.83;435229;1256;111846;-39
2023/03/12 01:49:14;;;;;;;19.20;10.10;;;;;;;-2.31;84.01;97865.79;435016;1256;108282;-40
2023/03/12 01:59:23;;;;;;;18.60;9.10;;;;;;;-2.31;83.88;97872.67;435285;1254;98835;-39
2023/03/12 02:09:32;;;;;;;14.70;8.30;;;;;;;-2.34;84.09;97882.14;435194;1256;108465;-40
2023/03/12 02:19:38;;;;;;;;;;;;;;;-2.34;84.19;97887.38;435202;1256;99323;-40
2023/03/12 02:29:46;;;;;;;17.30;10.50;;;;;;;-2.51;84.13;97898.81;435991;1255;111612;-40
2023/03/12 02:39:52;;;;;;;20.80;11.00;;;;;;;-2.63;84.33;97902.41;435261;1253;107785;-40
2023/03/12 02:49:59;;;;;;;22.50;9.60;;;;;;;-2.63;84.22;97904.33;435066;1256;98827;-40
2023/03/12 03:00:10;;;;;;;17.40;11.00;;;;;;;-2.58;84.33;97911.63;435245;1256;112106;-39
2023/03/12 03:10:17;;;;;;;16.40;8.70;;;;;;;-2.36;84.74;97923.11;435065;1254;109531;-39
2023/03/12 03:20:25;;;;;;;20.30;11.10;;;;;;;-2.39;84.66;97934.98;435276;1253;98011;-40
2023/03/12 03:30:33;;;;;;;20.00;10.70;;;;;;;-2.52;85.04;97942.98;435208;1254;109531;-40
2023/03/12 03:40:40;;;;;;;19.30;10.00;;;;;;;-2.63;84.98;97950.02;434735;1254;583508;-39
2023/03/12 03:50:47;;;;;;;19.80;10.70;;;;;;;-2.62;84.92;97954.75;435095;1256;110981;-39
2023/03/12 04:00:55;;;;;;;18.30;8.90;;;;;;;-2.60;84.77;97962.08;435033;1267;107517;-40
2023/03/12 04:11:06;;;;;;;14.20;8.60;;;;;;;-2.55;85.25;97967.58;435253;1253;99212;-40
2023/03/12 04:21:15;;;;;;;21.70;10.10;;;;;;;-2.61;85.02;97972.77;435199;1256;107402;-39
2023/03/12 04:31:22;;;;;;;18.30;9.50;;;;;;;-2.68;85.11;97977.91;435212;1256;99205;-40
2023/03/12 04:41:30;;;;;;;13.90;9.20;;;;;;;-2.63;85.18;97993.61;435132;1253;112108;-39
2023/03/12 04:51:36;;;;;;;12.60;6.60;;;;;;;-2.55;85.25;98003.52;435105;1256;108094;-40
2023/03/12 05:01:43;;;;;;;16.30;7.10;;;;;;;-2.47;85.09;98009.48;435145;1254;98041;-41
2023/03/12 05:11:50;;;;;;;18.50;8.90;;;;;;;-2.35;85.40;98015.86;435274;1256;106629;-39
2023/03/12 05:21:58;;;;;;;20.30;9.60;;;;;;;-2.36;85.19;98028.05;435295;1254;98310;-40
2023/03/12 05:32:04;;;;;;;15.90;7.70;;;;;;;-2.36;84.75;98034.80;435064;1256;111506;-40
2023/03/12 05:42:11;;;;;;;10.30;6.30;;;;;;;-2.14;84.94;98028.31;435128;1256;107313;-39
2023/03/12 05:52:18;;;;;;;14.10;6.00;;;;;;;-1.81;85.06;98041.38;435243;1256;99234;-39
2023/03/12 06:02:25;;;;;;;17.10;8.50;;;;;;;-1.71;84.46;98053.20;435211;1253;109441;-40
2023/03/12 06:12:33;;;;;;;16.00;6.40;;;;;;;-1.24;84.81;98051.88;435234;1253;97982;-40
2023/03/12 06:22:40;;;;;;;9.50;5.00;;;;;;;-1.13;83.74;98057.77;435104;1256;112748;-40
2023/03/12 06:32:47;;;;;;;17.60;7.60;;;;;;;-0.90;83.49;98069.20;435041;1252;109836;-40
2023/03/12 06:42:54;;;;;;;28.30;10.00;;;;;;;-0.24;84.04;98087.14;435142;1256;98820;-41
2023/03/12 06:53:02;;;;;;;11.30;6.50;;;;;;;0.47;82.19;98099.05;435254;1256;112721;-40
2023/03/12 07:03:09;;;;;;;11.70;5.10;;;;;;;0.33;81.02;98099.16;435005;1254;107281;-42
2023/03/12 07:13:16;;;;;;;9.60;5.10;;;;;;;1.08;80.80;98095.52;435107;1256;98846;-40
2023/03/12 07:23:24;;;;;;;6.30;3.80;;;;;;;1.78;79.88;98105.94;435244;1255;111330;-40
2023/03/12 07:33:31;;;;;;;10.70;5.00;;;;;;;2.09;77.77;98122.39;435313;1256;108224;-40
2023/03/12 07:43:39;;;;;;;15.50;8.50;;;;;;;1.73;77.05;98121.14;435191;1257;99211;-39
2023/03/12 07:53:47;;;;;;;7.90;4.40;;;;;;;2.34;76.65;98125.98;435113;1258;111775;-40
2023/03/12 08:03:54;;;;;;;12.10;6.40;;;;;;;2.72;74.44;98127.52;435149;1253;105863;-40
2023/03/12 08:14:02;;;;;;;10.50;4.20;;;;;;;3.23;73.70;98137.12;435137;1256;98475;-38
2023/03/12 08:24:07;;;;;;;10.30;5.10;;;;;;;3.59;72.86;98146.30;435185;1256;111986;-39
2023/03/12 08:34:14;;;;;;;12.90;6.80;;;;;;;2.97;70.95;98157.48;435142;1256;107172;-39
2023/03/12 08:44:21;;;;;;;9.60;5.60;;;;;;;2.72;72.44;98164.98;435159;1256;99224;-40
2023/03/12 08:54:29;;;;;;;7.70;5.30;;;;;;;3.45;72.03;98157.88;435205;1266;106918;-41
2023/03/12 09:04:36;;;;;;;7.60;4.80;;;;;;;3.86;70.96;98154.79;435289;1254;99400;-39
2023/03/12 09:14:43;;;;;;;18.70;8.70;;;;;;;4.13;71.41;98156.52;435222;1254;113457;-39
2023/03/12 09:25:13;;;;;;;7.70;4.40;;;;;;;4.48;71.17;98159.20;435086;1266;108161;-40
2023/03/12 09:35:20;;;;;;;8.80;4.60;;;;;;;4.59;70.71;98168.77;435114;1257;99266;-40
2023/03/12 09:45:27;;;;;;;6.70;3.50;;;;;;;4.77;69.97;98168.16;435339;1257;107988;-40
2023/03/12 09:55:37;;;;;;;10.70;4.10;;;;;;;4.45;69.34;98164.27;435065;1254;99319;-40
2023/03/12 10:05:45;;;;;;;9.40;4.80;;;;;;;4.78;68.49;98169.73;435147;1254;111080;-40
2023/03/12 10:15:54;;;;;;;12.90;5.30;;;;;;;4.74;68.74;98177.30;435029;1254;108602;-39
2023/03/12 10:26:04;;;;;;;4.50;3.10;;;;;;;4.75;68.62;98187.83;435173;1258;99052;-39
2023/03/12 10:46:50;;;;;;;4.40;2.20;;;;;;;5.03;65.27;98190.42;435276;1252;108634;-40
2023/03/12 10:56:57;;;;;;;5.20;3.30;;;;;;;4.81;65.43;98188.54;435272;1257;99221;-40
2023/03/12 11:07:07;;;;;;;3.50;2.40;;;;;;;5.27;65.11;98195.39;435241;1254;111206;-40
2023/03/12 11:17:19;;;;;;;5.70;3.00;;;;;;;4.78;64.46;98193.90;435255;1254;107517;-40
2023/03/12 11:27:27;;;;;;;7.70;2.90;;;;;;;4.61;64.61;98192.83;435194;1254;99240;-40
2023/03/12 11:37:35;;;;;;;6.90;3.40;;;;;;;4.70;63.87;98183.52;435136;1258;111387;-39
2023/03/12 11:47:48;;;;;;;7.20;2.70;;;;;;;4.94;64.35;98171.63;436214;1252;106571;-40
2023/03/12 11:57:57;;;;;;;8.60;3.40;;;;;;;4.83;63.93;98176.89;435278;1254;99343;-40
2023/03/12 12:08:23;;;;;;;8.30;3.20;;;;;;;4.75;63.69;98180.13;435314;1254;111288;-40
2023/03/12 12:18:40;;;;;;;13.10;6.00;;;;;;;4.97;63.69;98172.44;436109;1254;107495;-40
2023/03/12 12:29:07;;;;;;;7.50;3.60;;;;;;;5.49;63.33;98170.50;435277;1254;98511;-39
2023/03/12 12:39:13;;;;;;;6.30;2.80;;;;;;;5.45;62.59;98178.67;435173;1257;110776;-40
2023/03/12 12:49:26;;;;;;;4.20;2.70;;;;;;;5.63;62.68;98173.83;435099;1256;108040;-40
2023/03/12 12:59:33;;;;;;;10.90;4.90;;;;;;;5.88;62.20;98166.53;435387;1254;98065;-40
2023/03/12 13:09:43;;;;;;;7.30;2.40;;;;;;;5.86;60.03;98163.31;436661;1257;112449;-40
2023/03/12 13:19:50;;;;;;;5.00;2.10;;;;;;;5.75;60.54;98169.54;435345;1254;108110;-40
2023/03/12 13:30:37;;;;;;;7.20;2.50;;;;;;;5.84;60.51;98166.38;435188;1253;99215;-40
2023/03/12 13:41:02;;;;;;;5.80;3.20;;;;;;;5.87;61.21;98170.89;435189;1253;111825;-41
2023/03/12 13:51:16;;;;;;;11.90;5.60;;;;;;;5.97;61.27;98176.52;435116;1256;108956;-41
2023/03/12 14:01:31;;;;;;;7.80;4.30;;;;;;;5.98;61.44;98182.21;435248;1254;98842;-40
2023/03/12 14:11:47;;;;;;;13.00;6.60;;;;;;;5.90;61.71;98187.63;435195;1254;110640;-40
2023/03/12 14:21:56;;;;;;;4.70;3.10;;;;;;;5.80;61.79;98199.70;435159;1254;109431;-41
2023/03/12 14:32:12;;;;;;;14.70;5.70;;;;;;;5.68;61.98;98211.41;435218;1253;97941;-41
2023/03/12 14:42:25;;;;;;;16.70;6.90;;;;;;;5.57;61.76;98222.77;435257;1254;111014;-40
2023/03/12 15:02:39;;;;;;;16.70;7.00;;;;;;;5.19;61.18;98207.18;435204;1256;98830;-41
2023/03/12 15:12:48;;;;;;;11.40;4.70;;;;;;;5.10;61.00;98224.64;435366;1253;110934;-40
2023/03/12 15:22:57;;;;;;;15.20;4.40;;;;;;;4.85;60.67;98214.04;436030;1253;108741;-40
2023/03/12 15:33:11;;;;;;;11.40;5.10;;;;;;;4.67;61.03;98211.60;435378;1253;99222;-39
2023/03/12 15:43:16;;;;;;;17.90;8.60;;;;;;;4.65;61.60;98217.27;434736;1256;610868;-40
2023/03/12 16:03:31;;;;;;;53.70;20.30;;;;;;;4.41;62.45;98208.48;435235;1253;99293;-40
2023/03/12 16:13:40;;;;;;;19.40;10.50;;;;;;;4.24;62.74;98211.36;435227;1253;110305;-40
2023/03/12 16:23:48;;;;;;;16.50;7.80;;;;;;;4.13;63.24;98207.88;435286;1256;107324;-39
2023/03/12 16:33:55;;;;;;;29.00;12.20;;;;;;;3.96;63.43;98201.77;435353;1253;98816;-40
2023/03/12 16:44:06;;;;;;;40.60;15.60;;;;;;;3.79;63.61;98200.39;435215;1252;111997;-40
2023/03/12 16:54:14;;;;;;;35.10;15.70;;;;;;;3.62;63.83;98202.88;435265;1256;107590;-40
2023/03/12 17:04:21;;;;;;;35.80;16.50;;;;;;;3.44;64.00;98194.03;435268;1253;99224;-40
2023/03/12 17:14:30;;;;;;;31.70;15.40;;;;;;;3.25;64.23;98203.81;435275;1254;113008;-40
2023/03/12 17:24:38;;;;;;;36.60;16.20;;;;;;;3.06;64.44;98214.21;435192;1253;107612;-42
2023/03/12 17:34:46;;;;;;;36.40;15.00;;;;;;;2.95;64.71;98229.48;435262;1256;99250;-40
2023/03/12 17:44:53;;;;;;;31.60;13.70;;;;;;;2.89;64.82;98211.05;435105;1256;112143;-39
2023/03/12 17:55:00;;;;;;;30.60;15.40;;;;;;;2.83;64.89;98209.20;435224;1256;109394;-41
2023/03/12 18:05:06;;;;;;;34.30;15.60;;;;;;;2.75;64.86;98200.61;435295;1253;99228;-40
2023/03/12 18:15:15;;;;;;;32.70;17.80;;;;;;;2.67;64.97;98187.88;435171;1256;111556;-40
2023/03/12 18:25:23;;;;;;;31.30;14.90;;;;;;;2.61;64.93;98198.79;435162;1256;106879;-41
2023/03/12 18:35:30;;;;;;;30.10;15.90;;;;;;;2.56;65.11;98192.23;435262;1254;99239;-40
2023/03/12 18:45:41;;;;;;;27.50;13.70;;;;;;;2.54;65.01;98193.34;435302;1256;111660;-41
2023/03/12 19:16:07;;;;;;;29.90;16.70;;;;;;;2.50;65.18;98189.38;435307;1256;111721;-39
2023/03/12 19:26:14;;;;;;;52.60;24.10;;;;;;;2.48;64.94;98158.58;435367;1253;108060;-40
2023/03/12 19:36:22;;;;;;;41.10;19.60;;;;;;;2.50;65.03;98168.63;435243;1256;98814;-40
2023/03/12 19:46:30;;;;;;;41.70;19.70;;;;;;;2.53;65.10;98190.48;435207;1253;111965;-40
2023/03/12 19:56:37;;;;;;;40.70;20.60;;;;;;;2.54;65.04;98170.70;435254;1253;107021;-40
2023/03/12 20:16:50;;;;;;;40.30;19.30;;;;;;;2.54;64.58;98152.08;435129;1256;107327;-40
2023/03/12 20:26:57;;;;;;;41.60;18.10;;;;;;;2.52;64.35;98137.41;435351;1256;99243;-39
2023/03/12 20:37:04;;;;;;;45.00;16.90;;;;;;;2.50;64.03;98113.11;435291;1256;111685;-41
2023/03/12 20:47:12;;;;;;;33.00;16.40;;;;;;;2.47;64.07;98099.08;435195;1253;107784;-40
2023/03/12 20:57:19;;;;;;;41.10;19.50;;;;;;;2.43;64.06;98092.84;435172;1254;99252;-40
2023/03/12 21:07:26;;;;;;;47.50;20.50;;;;;;;2.44;64.10;98088.39;435209;1254;111182;-40
2023/03/12 21:17:32;;;;;;;41.40;20.10;;;;;;;2.44;64.11;98084.98;435288;1256;107884;-40
2023/03/12 21:37:57;;;;;;;41.20;19.10;;;;;;;2.43;64.06;98067.83;435315;1256;108787;-41
2023/03/12 21:48:05;;;;;;;32.40;16.60;;;;;;;2.43;64.11;98072.48;435222;1256;99217;-38
2023/03/12 21:58:12;;;;;;;25.80;13.70;;;;;;;2.47;64.02;98067.73;435220;1254;111891;-40
2023/03/12 22:08:19;;;;;;;25.80;13.80;;;;;;;2.53;63.98;98063.81;435315;1256;109284;-39
2023/03/12 22:18:28;;;;;;;25.20;11.30;;;;;;;2.60;63.87;98064.14;435165;1256;99215;-39
2023/03/12 22:28:35;;;;;;;24.00;9.50;;;;;;;2.69;63.84;98061.47;435194;1253;112508;-40
2023/03/12 22:38:43;;;;;;;20.20;9.10;;;;;;;2.74;63.74;98049.67;435204;1256;107205;-39
2023/03/12 22:48:55;;;;;;;22.00;9.40;;;;;;;2.77;63.79;98045.63;435203;1256;98833;-41
2023/03/12 22:59:02;;;;;;;24.80;10.00;;;;;;;2.77;63.88;98042.50;435170;1253;112662;-40
2023/03/12 23:09:09;;;;;;;18.00;8.60;;;;;;;2.80;63.92;98058.48;435284;1253;109544;-40
2023/03/12 23:19:15;;;;;;;18.60;7.00;;;;;;;2.80;64.38;98065.16;435250;1256;98830;-40
2023/03/12 23:29:23;;;;;;;14.70;6.80;;;;;;;2.67;65.25;98053.52;435374;1256;109170;-41
2023/03/12 23:39:30;;;;;;;9.40;4.80;;;;;;;2.65;65.82;98048.60;435230;1253;98845;-40
2023/03/12 23:49:45;;;;;;;10.10;5.00;;;;;;;2.68;66.52;98044.88;435204;1256;110964;-39
2023/03/12 23:59:52;;;;;;;14.20;6.30;;;;;;;2.66;67.28;98033.54;435177;1253;108271;-41
